sensor_id;sensor_type;location;lat;lon;timestamp;P1;durP1;ratioP1;P2;durP2;ratioP2
82296;SDS011;71899;51.992;8.648;2024-02-26T00:01:12;43.10;;;18.48;;
82296;SDS011;71899;51.992;8.648;2024-02-26T00:03:37;38.38;;;17.10;;
82296;SDS011;71899;51.992;8.648;2024-02-26T00:06:04;31.35;;;15.35;;
82296;SDS011;71899;51.992;8.648;2024-02-26T00:08:29;32.45;;;14.93;;
82296;SDS011;71899;51.992;8.648;2024-02-26T00:10:54;27.45;;;14.57;;
82296;SDS011;71899;51.992;8.648;2024-02-26T00:13:20;30.73;;;13.88;;
82296;SDS011;71899;51.992;8.648;2024-02-26T00:15:45;30.20;;;12.90;;
82296;SDS011;71899;51.992;8.648;2024-02-26T00:18:11;24.55;;;13.57;;
82296;SDS011;71899;51.992;8.648;2024-02-26T00:20:36;29.67;;;14.90;;
82296;SDS011;71899;51.992;8.648;2024-02-26T00:23:01;36.75;;;14.85;;
82296;SDS011;71899;51.992;8.648;2024-02-26T00:25:27;30.40;;;15.07;;
82296;SDS011;71899;51.992;8.648;2024-02-26T00:27:52;37.47;;;14.27;;
82296;SDS011;71899;51.992;8.648;2024-02-26T00:30:17;31.20;;;13.85;;
82296;SDS011;71899;51.992;8.648;2024-02-26T00:32:43;31.98;;;13.65;;
82296;SDS011;71899;51.992;8.648;2024-02-26T00:35:08;31.85;;;14.95;;
82296;SDS011;71899;51.992;8.648;2024-02-26T00:37:34;31.67;;;14.93;;
82296;SDS011;71899;51.992;8.648;2024-02-26T00:40:00;32.60;;;15.63;;
82296;SDS011;71899;51.992;8.648;2024-02-26T00:42:25;31.52;;;16.27;;
82296;SDS011;71899;51.992;8.648;2024-02-26T00:44:51;27.48;;;14.70;;
82296;SDS011;71899;51.992;8.648;2024-02-26T00:47:16;36.22;;;15.25;;
82296;SDS011;71899;51.992;8.648;2024-02-26T00:49:41;25.98;;;13.48;;
82296;SDS011;71899;51.992;8.648;2024-02-26T00:52:07;32.88;;;14.05;;
82296;SDS011;71899;51.992;8.648;2024-02-26T00:54:32;31.63;;;14.70;;
82296;SDS011;71899;51.992;8.648;2024-02-26T00:56:57;32.80;;;14.32;;
82296;SDS011;71899;51.992;8.648;2024-02-26T00:59:22;25.65;;;13.50;;
82296;SDS011;71899;51.992;8.648;2024-02-26T01:01:48;31.83;;;13.23;;
82296;SDS011;71899;51.992;8.648;2024-02-26T01:04:13;26.30;;;14.18;;
82296;SDS011;71899;51.992;8.648;2024-02-26T01:06:38;29.80;;;13.15;;
82296;SDS011;71899;51.992;8.648;2024-02-26T01:09:04;31.13;;;12.82;;
82296;SDS011;71899;51.992;8.648;2024-02-26T01:11:29;25.63;;;13.77;;
82296;SDS011;71899;51.992;8.648;2024-02-26T01:13:54;31.52;;;12.90;;
82296;SDS011;71899;51.992;8.648;2024-02-26T01:16:22;19.73;;;12.18;;
82296;SDS011;71899;51.992;8.648;2024-02-26T01:18:48;23.23;;;11.80;;
82296;SDS011;71899;51.992;8.648;2024-02-26T01:21:13;23.23;;;12.15;;
82296;SDS011;71899;51.992;8.648;2024-02-26T01:23:38;25.50;;;11.75;;
82296;SDS011;71899;51.992;8.648;2024-02-26T01:26:04;22.98;;;12.25;;
82296;SDS011;71899;51.992;8.648;2024-02-26T01:28:29;23.60;;;12.02;;
82296;SDS011;71899;51.992;8.648;2024-02-26T01:30:55;22.75;;;12.48;;
82296;SDS011;71899;51.992;8.648;2024-02-26T01:33:20;26.33;;;13.80;;
82296;SDS011;71899;51.992;8.648;2024-02-26T01:35:45;28.27;;;14.38;;
82296;SDS011;71899;51.992;8.648;2024-02-26T01:38:11;27.30;;;14.98;;
82296;SDS011;71899;51.992;8.648;2024-02-26T01:40:37;30.42;;;15.40;;
82296;SDS011;71899;51.992;8.648;2024-02-26T01:43:02;31.77;;;15.20;;
82296;SDS011;71899;51.992;8.648;2024-02-26T01:45:27;31.58;;;15.77;;
82296;SDS011;71899;51.992;8.648;2024-02-26T01:47:53;36.55;;;16.60;;
82296;SDS011;71899;51.992;8.648;2024-02-26T01:50:19;30.55;;;15.63;;
82296;SDS011;71899;51.992;8.648;2024-02-26T01:52:45;35.40;;;15.60;;
82296;SDS011;71899;51.992;8.648;2024-02-26T01:55:12;31.70;;;15.57;;
82296;SDS011;71899;51.992;8.648;2024-02-26T01:57:39;27.20;;;14.25;;
82296;SDS011;71899;51.992;8.648;2024-02-26T02:00:07;29.00;;;14.15;;
82296;SDS011;71899;51.992;8.648;2024-02-26T02:02:36;28.35;;;13.82;;
82296;SDS011;71899;51.992;8.648;2024-02-26T02:05:03;34.20;;;14.52;;
82296;SDS011;71899;51.992;8.648;2024-02-26T02:07:30;27.35;;;13.38;;
82296;SDS011;71899;51.992;8.648;2024-02-26T02:09:56;28.30;;;13.07;;
82296;SDS011;71899;51.992;8.648;2024-02-26T02:12:21;32.67;;;14.60;;
82296;SDS011;71899;51.992;8.648;2024-02-26T02:14:46;27.40;;;15.13;;
82296;SDS011;71899;51.992;8.648;2024-02-26T02:17:12;30.63;;;14.82;;
82296;SDS011;71899;51.992;8.648;2024-02-26T02:19:37;31.88;;;15.10;;
82296;SDS011;71899;51.992;8.648;2024-02-26T02:22:03;31.10;;;16.15;;
82296;SDS011;71899;51.992;8.648;2024-02-26T02:24:28;29.45;;;15.35;;
82296;SDS011;71899;51.992;8.648;2024-02-26T02:26:53;29.90;;;13.55;;
82296;SDS011;71899;51.992;8.648;2024-02-26T02:29:19;32.25;;;13.10;;
82296;SDS011;71899;51.992;8.648;2024-02-26T02:31:44;28.13;;;13.13;;
82296;SDS011;71899;51.992;8.648;2024-02-26T02:34:10;22.65;;;12.77;;
82296;SDS011;71899;51.992;8.648;2024-02-26T02:36:47;32.47;;;13.38;;
82296;SDS011;71899;51.992;8.648;2024-02-26T02:39:13;28.65;;;13.85;;
82296;SDS011;71899;51.992;8.648;2024-02-26T02:41:38;29.30;;;14.35;;
82296;SDS011;71899;51.992;8.648;2024-02-26T02:44:04;36.67;;;14.57;;
82296;SDS011;71899;51.992;8.648;2024-02-26T02:46:29;23.52;;;12.93;;
82296;SDS011;71899;51.992;8.648;2024-02-26T02:48:56;32.97;;;15.95;;
82296;SDS011;71899;51.992;8.648;2024-02-26T02:51:21;33.45;;;15.63;;
82296;SDS011;71899;51.992;8.648;2024-02-26T02:53:46;36.13;;;15.75;;
82296;SDS011;71899;51.992;8.648;2024-02-26T02:56:11;38.70;;;15.30;;
82296;SDS011;71899;51.992;8.648;2024-02-26T02:58:37;40.85;;;16.02;;
82296;SDS011;71899;51.992;8.648;2024-02-26T03:01:02;37.55;;;16.52;;
82296;SDS011;71899;51.992;8.648;2024-02-26T03:03:28;29.35;;;14.60;;
82296;SDS011;71899;51.992;8.648;2024-02-26T03:05:53;36.55;;;14.90;;
82296;SDS011;71899;51.992;8.648;2024-02-26T03:08:19;34.55;;;15.85;;
82296;SDS011;71899;51.992;8.648;2024-02-26T03:10:44;33.33;;;14.77;;
82296;SDS011;71899;51.992;8.648;2024-02-26T03:13:09;34.42;;;15.02;;
82296;SDS011;71899;51.992;8.648;2024-02-26T03:15:35;33.85;;;15.77;;
82296;SDS011;71899;51.992;8.648;2024-02-26T03:18:00;28.00;;;14.80;;
82296;SDS011;71899;51.992;8.648;2024-02-26T03:20:25;36.92;;;15.73;;
82296;SDS011;71899;51.992;8.648;2024-02-26T03:22:50;38.15;;;14.70;;
82296;SDS011;71899;51.992;8.648;2024-02-26T03:25:16;36.25;;;15.60;;
82296;SDS011;71899;51.992;8.648;2024-02-26T03:27:41;35.38;;;14.13;;
82296;SDS011;71899;51.992;8.648;2024-02-26T03:30:06;31.80;;;14.07;;
82296;SDS011;71899;51.992;8.648;2024-02-26T03:32:32;25.83;;;13.77;;
82296;SDS011;71899;51.992;8.648;2024-02-26T03:34:57;26.42;;;12.73;;
82296;SDS011;71899;51.992;8.648;2024-02-26T03:37:23;27.08;;;13.32;;
82296;SDS011;71899;51.992;8.648;2024-02-26T03:39:48;26.35;;;14.70;;
82296;SDS011;71899;51.992;8.648;2024-02-26T03:42:13;25.15;;;12.88;;
82296;SDS011;71899;51.992;8.648;2024-02-26T03:44:39;26.45;;;13.65;;
82296;SDS011;71899;51.992;8.648;2024-02-26T03:47:04;25.33;;;12.27;;
82296;SDS011;71899;51.992;8.648;2024-02-26T03:49:29;22.75;;;11.13;;
82296;SDS011;71899;51.992;8.648;2024-02-26T03:51:55;23.15;;;11.95;;
82296;SDS011;71899;51.992;8.648;2024-02-26T03:54:20;25.60;;;12.35;;
82296;SDS011;71899;51.992;8.648;2024-02-26T03:56:45;24.20;;;13.50;;
82296;SDS011;71899;51.992;8.648;2024-02-26T03:59:10;23.17;;;13.13;;
82296;SDS011;71899;51.992;8.648;2024-02-26T04:01:36;35.15;;;16.10;;
82296;SDS011;71899;51.992;8.648;2024-02-26T04:04:01;26.20;;;12.80;;
82296;SDS011;71899;51.992;8.648;2024-02-26T04:06:26;24.67;;;12.40;;
82296;SDS011;71899;51.992;8.648;2024-02-26T04:08:52;27.73;;;14.00;;
82296;SDS011;71899;51.992;8.648;2024-02-26T04:11:17;26.42;;;12.68;;
82296;SDS011;71899;51.992;8.648;2024-02-26T04:13:44;29.00;;;13.07;;
82296;SDS011;71899;51.992;8.648;2024-02-26T04:16:14;33.45;;;15.30;;
82296;SDS011;71899;51.992;8.648;2024-02-26T04:18:40;29.30;;;13.88;;
82296;SDS011;71899;51.992;8.648;2024-02-26T04:21:05;30.05;;;14.10;;
82296;SDS011;71899;51.992;8.648;2024-02-26T04:23:32;30.85;;;15.57;;
82296;SDS011;71899;51.992;8.648;2024-02-26T04:25:57;36.50;;;16.45;;
82296;SDS011;71899;51.992;8.648;2024-02-26T04:28:22;38.25;;;16.55;;
82296;SDS011;71899;51.992;8.648;2024-02-26T04:30:50;34.90;;;16.02;;
82296;SDS011;71899;51.992;8.648;2024-02-26T04:33:16;41.83;;;17.58;;
82296;SDS011;71899;51.992;8.648;2024-02-26T04:35:41;32.03;;;16.52;;
82296;SDS011;71899;51.992;8.648;2024-02-26T04:38:07;34.33;;;16.27;;
82296;SDS011;71899;51.992;8.648;2024-02-26T04:40:32;39.38;;;17.73;;
82296;SDS011;71899;51.992;8.648;2024-02-26T04:42:57;31.85;;;13.57;;
82296;SDS011;71899;51.992;8.648;2024-02-26T04:45:23;30.85;;;15.32;;
82296;SDS011;71899;51.992;8.648;2024-02-26T04:47:48;37.72;;;16.55;;
82296;SDS011;71899;51.992;8.648;2024-02-26T04:50:13;29.80;;;15.43;;
82296;SDS011;71899;51.992;8.648;2024-02-26T04:52:38;35.83;;;15.20;;
82296;SDS011;71899;51.992;8.648;2024-02-26T04:55:04;35.03;;;15.02;;
82296;SDS011;71899;51.992;8.648;2024-02-26T04:57:29;28.33;;;14.95;;
82296;SDS011;71899;51.992;8.648;2024-02-26T04:59:54;29.17;;;14.85;;
82296;SDS011;71899;51.992;8.648;2024-02-26T05:02:20;30.00;;;14.38;;
82296;SDS011;71899;51.992;8.648;2024-02-26T05:04:46;27.90;;;15.13;;
82296;SDS011;71899;51.992;8.648;2024-02-26T05:07:11;35.53;;;14.40;;
82296;SDS011;71899;51.992;8.648;2024-02-26T05:09:37;35.17;;;14.55;;
82296;SDS011;71899;51.992;8.648;2024-02-26T05:12:02;26.77;;;14.70;;
82296;SDS011;71899;51.992;8.648;2024-02-26T05:14:28;34.58;;;15.48;;
82296;SDS011;71899;51.992;8.648;2024-02-26T05:16:54;36.58;;;14.50;;
82296;SDS011;71899;51.992;8.648;2024-02-26T05:19:19;32.25;;;15.98;;
82296;SDS011;71899;51.992;8.648;2024-02-26T05:21:44;28.92;;;15.15;;
82296;SDS011;71899;51.992;8.648;2024-02-26T05:24:12;32.17;;;14.63;;
82296;SDS011;71899;51.992;8.648;2024-02-26T05:26:38;28.13;;;14.18;;
82296;SDS011;71899;51.992;8.648;2024-02-26T05:29:03;32.42;;;13.85;;
82296;SDS011;71899;51.992;8.648;2024-02-26T05:31:28;25.60;;;12.75;;
82296;SDS011;71899;51.992;8.648;2024-02-26T05:33:54;25.98;;;14.27;;
82296;SDS011;71899;51.992;8.648;2024-02-26T05:36:20;29.55;;;13.60;;
82296;SDS011;71899;51.992;8.648;2024-02-26T05:38:47;34.22;;;14.65;;
82296;SDS011;71899;51.992;8.648;2024-02-26T05:41:12;32.05;;;14.20;;
82296;SDS011;71899;51.992;8.648;2024-02-26T05:43:37;26.95;;;14.35;;
82296;SDS011;71899;51.992;8.648;2024-02-26T05:46:03;29.55;;;13.52;;
82296;SDS011;71899;51.992;8.648;2024-02-26T05:48:28;31.83;;;14.27;;
82296;SDS011;71899;51.992;8.648;2024-02-26T05:50:53;28.95;;;12.40;;
82296;SDS011;71899;51.992;8.648;2024-02-26T05:53:19;25.20;;;12.00;;
82296;SDS011;71899;51.992;8.648;2024-02-26T05:55:44;27.63;;;13.07;;
82296;SDS011;71899;51.992;8.648;2024-02-26T05:58:09;32.83;;;14.63;;
82296;SDS011;71899;51.992;8.648;2024-02-26T06:00:35;23.42;;;13.10;;
82296;SDS011;71899;51.992;8.648;2024-02-26T06:03:00;22.15;;;11.98;;
82296;SDS011;71899;51.992;8.648;2024-02-26T06:05:25;24.00;;;12.18;;
82296;SDS011;71899;51.992;8.648;2024-02-26T06:07:51;21.35;;;12.20;;
82296;SDS011;71899;51.992;8.648;2024-02-26T06:10:17;22.00;;;11.52;;
82296;SDS011;71899;51.992;8.648;2024-02-26T06:12:46;21.40;;;11.60;;
82296;SDS011;71899;51.992;8.648;2024-02-26T06:15:11;22.55;;;10.23;;
82296;SDS011;71899;51.992;8.648;2024-02-26T06:17:37;23.88;;;11.65;;
82296;SDS011;71899;51.992;8.648;2024-02-26T06:20:02;22.02;;;11.18;;
82296;SDS011;71899;51.992;8.648;2024-02-26T06:22:30;22.65;;;11.35;;
82296;SDS011;71899;51.992;8.648;2024-02-26T06:24:55;19.48;;;10.40;;
82296;SDS011;71899;51.992;8.648;2024-02-26T06:27:20;22.88;;;11.38;;
82296;SDS011;71899;51.992;8.648;2024-02-26T06:29:46;19.70;;;11.32;;
82296;SDS011;71899;51.992;8.648;2024-02-26T06:32:12;21.90;;;12.13;;
82296;SDS011;71899;51.992;8.648;2024-02-26T06:34:38;22.67;;;11.43;;
82296;SDS011;71899;51.992;8.648;2024-02-26T06:37:05;21.10;;;11.85;;
82296;SDS011;71899;51.992;8.648;2024-02-26T06:39:31;22.15;;;10.90;;
82296;SDS011;71899;51.992;8.648;2024-02-26T06:41:56;21.88;;;11.52;;
82296;SDS011;71899;51.992;8.648;2024-02-26T06:44:25;20.80;;;11.05;;
82296;SDS011;71899;51.992;8.648;2024-02-26T06:46:56;18.77;;;10.50;;
82296;SDS011;71899;51.992;8.648;2024-02-26T06:49:21;15.25;;;10.07;;
82296;SDS011;71899;51.992;8.648;2024-02-26T06:51:47;20.83;;;11.73;;
82296;SDS011;71899;51.992;8.648;2024-02-26T06:54:12;21.08;;;11.93;;
82296;SDS011;71899;51.992;8.648;2024-02-26T06:56:37;23.25;;;10.90;;
82296;SDS011;71899;51.992;8.648;2024-02-26T06:59:03;20.70;;;11.63;;
82296;SDS011;71899;51.992;8.648;2024-02-26T07:01:28;21.65;;;11.15;;
82296;SDS011;71899;51.992;8.648;2024-02-26T07:03:53;17.50;;;11.02;;
82296;SDS011;71899;51.992;8.648;2024-02-26T07:06:19;18.40;;;10.32;;
82296;SDS011;71899;51.992;8.648;2024-02-26T07:08:44;17.90;;;10.25;;
82296;SDS011;71899;51.992;8.648;2024-02-26T07:11:10;22.27;;;10.93;;
82296;SDS011;71899;51.992;8.648;2024-02-26T07:13:36;20.00;;;11.00;;
82296;SDS011;71899;51.992;8.648;2024-02-26T07:16:01;23.00;;;11.00;;
82296;SDS011;71899;51.992;8.648;2024-02-26T07:18:26;23.10;;;12.88;;
82296;SDS011;71899;51.992;8.648;2024-02-26T07:20:52;22.17;;;11.60;;
82296;SDS011;71899;51.992;8.648;2024-02-26T07:23:17;21.15;;;11.65;;
82296;SDS011;71899;51.992;8.648;2024-02-26T07:25:42;20.38;;;11.25;;
82296;SDS011;71899;51.992;8.648;2024-02-26T07:28:09;23.02;;;11.73;;
82296;SDS011;71899;51.992;8.648;2024-02-26T07:30:34;24.50;;;12.90;;
82296;SDS011;71899;51.992;8.648;2024-02-26T07:33:00;23.58;;;12.10;;
82296;SDS011;71899;51.992;8.648;2024-02-26T07:35:25;22.15;;;12.38;;
82296;SDS011;71899;51.992;8.648;2024-02-26T07:37:52;18.38;;;10.60;;
82296;SDS011;71899;51.992;8.648;2024-02-26T07:40:17;16.98;;;10.27;;
82296;SDS011;71899;51.992;8.648;2024-02-26T07:42:43;19.13;;;10.90;;
82296;SDS011;71899;51.992;8.648;2024-02-26T07:45:09;17.15;;;9.73;;
82296;SDS011;71899;51.992;8.648;2024-02-26T07:47:35;14.40;;;9.13;;
82296;SDS011;71899;51.992;8.648;2024-02-26T07:50:00;13.68;;;9.07;;
82296;SDS011;71899;51.992;8.648;2024-02-26T07:52:26;12.20;;;8.13;;
82296;SDS011;71899;51.992;8.648;2024-02-26T07:54:51;15.23;;;9.52;;
82296;SDS011;71899;51.992;8.648;2024-02-26T07:57:17;12.77;;;8.05;;
82296;SDS011;71899;51.992;8.648;2024-02-26T07:59:42;11.65;;;8.23;;
82296;SDS011;71899;51.992;8.648;2024-02-26T08:02:08;11.55;;;7.90;;
82296;SDS011;71899;51.992;8.648;2024-02-26T08:04:33;14.43;;;7.75;;
82296;SDS011;71899;51.992;8.648;2024-02-26T08:06:58;11.50;;;6.63;;
82296;SDS011;71899;51.992;8.648;2024-02-26T08:09:24;8.35;;;6.57;;
82296;SDS011;71899;51.992;8.648;2024-02-26T08:11:49;7.97;;;5.70;;
82296;SDS011;71899;51.992;8.648;2024-02-26T08:14:14;11.48;;;5.80;;
82296;SDS011;71899;51.992;8.648;2024-02-26T08:16:40;5.90;;;5.00;;
82296;SDS011;71899;51.992;8.648;2024-02-26T08:19:05;6.25;;;4.82;;
82296;SDS011;71899;51.992;8.648;2024-02-26T08:21:30;7.95;;;4.22;;
82296;SDS011;71899;51.992;8.648;2024-02-26T08:23:55;5.32;;;4.35;;
82296;SDS011;71899;51.992;8.648;2024-02-26T08:26:21;5.70;;;4.03;;
82296;SDS011;71899;51.992;8.648;2024-02-26T08:28:47;8.48;;;4.75;;
82296;SDS011;71899;51.992;8.648;2024-02-26T08:31:14;6.85;;;4.03;;
82296;SDS011;71899;51.992;8.648;2024-02-26T08:33:39;5.50;;;4.45;;
82296;SDS011;71899;51.992;8.648;2024-02-26T08:36:05;5.97;;;4.85;;
82296;SDS011;71899;51.992;8.648;2024-02-26T08:38:31;5.15;;;4.03;;
82296;SDS011;71899;51.992;8.648;2024-02-26T08:40:56;7.22;;;3.78;;
82296;SDS011;71899;51.992;8.648;2024-02-26T08:43:22;5.85;;;3.80;;
82296;SDS011;71899;51.992;8.648;2024-02-26T08:45:47;6.40;;;4.35;;
82296;SDS011;71899;51.992;8.648;2024-02-26T08:48:12;6.72;;;3.40;;
82296;SDS011;71899;51.992;8.648;2024-02-26T08:50:38;5.25;;;3.35;;
82296;SDS011;71899;51.992;8.648;2024-02-26T08:53:03;6.55;;;4.10;;
82296;SDS011;71899;51.992;8.648;2024-02-26T08:55:29;5.20;;;3.88;;
82296;SDS011;71899;51.992;8.648;2024-02-26T08:57:54;6.68;;;4.10;;
82296;SDS011;71899;51.992;8.648;2024-02-26T09:00:20;7.00;;;4.55;;
82296;SDS011;71899;51.992;8.648;2024-02-26T09:02:45;6.95;;;4.47;;
82296;SDS011;71899;51.992;8.648;2024-02-26T09:05:12;8.00;;;5.85;;
82296;SDS011;71899;51.992;8.648;2024-02-26T09:07:37;8.50;;;4.57;;
82296;SDS011;71899;51.992;8.648;2024-02-26T09:10:03;6.30;;;4.47;;
82296;SDS011;71899;51.992;8.648;2024-02-26T09:12:30;15.25;;;9.32;;
82296;SDS011;71899;51.992;8.648;2024-02-26T09:14:55;10.27;;;4.82;;
82296;SDS011;71899;51.992;8.648;2024-02-26T09:17:22;5.85;;;4.10;;
82296;SDS011;71899;51.992;8.648;2024-02-26T09:19:48;6.45;;;4.35;;
82296;SDS011;71899;51.992;8.648;2024-02-26T09:22:14;7.20;;;3.40;;
82296;SDS011;71899;51.992;8.648;2024-02-26T09:24:39;5.38;;;3.58;;
82296;SDS011;71899;51.992;8.648;2024-02-26T09:27:04;6.20;;;4.15;;
82296;SDS011;71899;51.992;8.648;2024-02-26T09:29:30;5.75;;;3.53;;
82296;SDS011;71899;51.992;8.648;2024-02-26T09:31:55;5.60;;;3.40;;
82296;SDS011;71899;51.992;8.648;2024-02-26T09:34:20;7.45;;;3.92;;
82296;SDS011;71899;51.992;8.648;2024-02-26T09:36:46;5.15;;;3.53;;
82296;SDS011;71899;51.992;8.648;2024-02-26T09:39:11;6.97;;;4.22;;
82296;SDS011;71899;51.992;8.648;2024-02-26T09:41:37;8.73;;;3.67;;
82296;SDS011;71899;51.992;8.648;2024-02-26T09:44:04;6.57;;;3.80;;
82296;SDS011;71899;51.992;8.648;2024-02-26T09:46:29;4.50;;;3.28;;
82296;SDS011;71899;51.992;8.648;2024-02-26T09:48:55;5.75;;;3.63;;
82296;SDS011;71899;51.992;8.648;2024-02-26T09:51:22;8.15;;;4.53;;
82296;SDS011;71899;51.992;8.648;2024-02-26T09:53:51;6.38;;;2.75;;
82296;SDS011;71899;51.992;8.648;2024-02-26T09:56:17;5.30;;;3.13;;
82296;SDS011;71899;51.992;8.648;2024-02-26T09:58:42;8.55;;;3.80;;
82296;SDS011;71899;51.992;8.648;2024-02-26T10:01:13;7.88;;;3.78;;
82296;SDS011;71899;51.992;8.648;2024-02-26T10:03:41;4.60;;;3.03;;
82296;SDS011;71899;51.992;8.648;2024-02-26T10:06:09;6.53;;;3.53;;
82296;SDS011;71899;51.992;8.648;2024-02-26T10:08:35;6.13;;;3.87;;
82296;SDS011;71899;51.992;8.648;2024-02-26T10:11:02;7.47;;;4.10;;
82296;SDS011;71899;51.992;8.648;2024-02-26T10:13:28;9.18;;;4.55;;
82296;SDS011;71899;51.992;8.648;2024-02-26T10:15:53;8.68;;;5.38;;
82296;SDS011;71899;51.992;8.648;2024-02-26T10:18:19;8.27;;;4.50;;
82296;SDS011;71899;51.992;8.648;2024-02-26T10:21:00;5.95;;;3.33;;
82296;SDS011;71899;51.992;8.648;2024-02-26T10:23:28;6.97;;;3.30;;
82296;SDS011;71899;51.992;8.648;2024-02-26T10:25:57;5.97;;;3.63;;
82296;SDS011;71899;51.992;8.648;2024-02-26T10:28:22;4.68;;;2.85;;
82296;SDS011;71899;51.992;8.648;2024-02-26T10:30:48;5.43;;;3.30;;
82296;SDS011;71899;51.992;8.648;2024-02-26T10:33:13;3.90;;;2.55;;
82296;SDS011;71899;51.992;8.648;2024-02-26T10:35:39;5.15;;;2.92;;
82296;SDS011;71899;51.992;8.648;2024-02-26T10:38:06;4.10;;;2.53;;
82296;SDS011;71899;51.992;8.648;2024-02-26T10:40:32;4.30;;;2.33;;
82296;SDS011;71899;51.992;8.648;2024-02-26T10:42:57;2.97;;;2.15;;
82296;SDS011;71899;51.992;8.648;2024-02-26T10:45:23;6.18;;;2.75;;
82296;SDS011;71899;51.992;8.648;2024-02-26T10:47:48;5.97;;;3.47;;
82296;SDS011;71899;51.992;8.648;2024-02-26T10:50:14;4.00;;;2.80;;
82296;SDS011;71899;51.992;8.648;2024-02-26T10:52:43;4.55;;;2.83;;
82296;SDS011;71899;51.992;8.648;2024-02-26T10:55:08;3.15;;;2.70;;
82296;SDS011;71899;51.992;8.648;2024-02-26T10:57:40;4.28;;;3.03;;
82296;SDS011;71899;51.992;8.648;2024-02-26T11:00:07;5.45;;;3.50;;
82296;SDS011;71899;51.992;8.648;2024-02-26T11:02:37;4.53;;;3.38;;
82296;SDS011;71899;51.992;8.648;2024-02-26T11:05:03;11.98;;;3.60;;
82296;SDS011;71899;51.992;8.648;2024-02-26T11:07:32;6.60;;;3.70;;
82296;SDS011;71899;51.992;8.648;2024-02-26T11:09:59;5.60;;;3.10;;
82296;SDS011;71899;51.992;8.648;2024-02-26T11:12:29;7.15;;;4.07;;
82296;SDS011;71899;51.992;8.648;2024-02-26T11:14:56;4.47;;;3.08;;
82296;SDS011;71899;51.992;8.648;2024-02-26T11:17:23;8.18;;;3.45;;
82296;SDS011;71899;51.992;8.648;2024-02-26T11:19:51;5.93;;;3.70;;
82296;SDS011;71899;51.992;8.648;2024-02-26T11:22:18;7.07;;;4.38;;
82296;SDS011;71899;51.992;8.648;2024-02-26T11:24:44;9.95;;;3.85;;
82296;SDS011;71899;51.992;8.648;2024-02-26T11:27:11;6.75;;;4.43;;
82296;SDS011;71899;51.992;8.648;2024-02-26T11:29:38;6.97;;;4.25;;
82296;SDS011;71899;51.992;8.648;2024-02-26T11:32:08;6.63;;;4.10;;
82296;SDS011;71899;51.992;8.648;2024-02-26T11:34:34;7.20;;;4.18;;
82296;SDS011;71899;51.992;8.648;2024-02-26T11:39:55;7.93;;;5.22;;
82296;SDS011;71899;51.992;8.648;2024-02-26T11:42:24;6.32;;;4.85;;
82296;SDS011;71899;51.992;8.648;2024-02-26T11:44:50;10.52;;;5.32;;
82296;SDS011;71899;51.992;8.648;2024-02-26T11:47:22;6.82;;;5.13;;
82296;SDS011;71899;51.992;8.648;2024-02-26T11:49:48;7.93;;;4.50;;
82296;SDS011;71899;51.992;8.648;2024-02-26T11:52:14;7.93;;;5.18;;
82296;SDS011;71899;51.992;8.648;2024-02-26T11:54:45;8.00;;;4.50;;
82296;SDS011;71899;51.992;8.648;2024-02-26T11:57:23;8.77;;;5.00;;
82296;SDS011;71899;51.992;8.648;2024-02-26T12:00:15;10.65;;;5.60;;
82296;SDS011;71899;51.992;8.648;2024-02-26T12:02:52;10.23;;;5.75;;
82296;SDS011;71899;51.992;8.648;2024-02-26T12:05:26;7.97;;;4.65;;
82296;SDS011;71899;51.992;8.648;2024-02-26T12:07:59;8.88;;;4.82;;
82296;SDS011;71899;51.992;8.648;2024-02-26T12:10:26;8.55;;;5.13;;
82296;SDS011;71899;51.992;8.648;2024-02-26T12:15:32;7.53;;;4.25;;
82296;SDS011;71899;51.992;8.648;2024-02-26T12:18:02;7.35;;;3.72;;
82296;SDS011;71899;51.992;8.648;2024-02-26T12:20:29;5.18;;;3.95;;
82296;SDS011;71899;51.992;8.648;2024-02-26T12:22:55;6.00;;;3.05;;
82296;SDS011;71899;51.992;8.648;2024-02-26T12:25:22;5.25;;;3.53;;
82296;SDS011;71899;51.992;8.648;2024-02-26T12:27:50;4.88;;;3.65;;
82296;SDS011;71899;51.992;8.648;2024-02-26T12:30:16;7.38;;;2.40;;
82296;SDS011;71899;51.992;8.648;2024-02-26T12:32:41;6.70;;;3.15;;
82296;SDS011;71899;51.992;8.648;2024-02-26T12:35:07;3.45;;;2.63;;
82296;SDS011;71899;51.992;8.648;2024-02-26T12:37:33;4.13;;;2.88;;
82296;SDS011;71899;51.992;8.648;2024-02-26T12:39:58;6.05;;;2.97;;
82296;SDS011;71899;51.992;8.648;2024-02-26T12:42:23;4.65;;;2.40;;
82296;SDS011;71899;51.992;8.648;2024-02-26T12:44:49;6.07;;;2.95;;
82296;SDS011;71899;51.992;8.648;2024-02-26T12:47:15;5.00;;;2.88;;
82296;SDS011;71899;51.992;8.648;2024-02-26T12:49:47;3.92;;;2.65;;
82296;SDS011;71899;51.992;8.648;2024-02-26T12:52:13;6.63;;;3.15;;
82296;SDS011;71899;51.992;8.648;2024-02-26T12:54:39;5.57;;;3.47;;
82296;SDS011;71899;51.992;8.648;2024-02-26T12:57:06;4.75;;;3.13;;
82296;SDS011;71899;51.992;8.648;2024-02-26T12:59:34;5.72;;;3.55;;
82296;SDS011;71899;51.992;8.648;2024-02-26T13:02:00;11.00;;;4.85;;
82296;SDS011;71899;51.992;8.648;2024-02-26T13:04:27;11.30;;;6.65;;
82296;SDS011;71899;51.992;8.648;2024-02-26T13:06:54;7.07;;;3.72;;
82296;SDS011;71899;51.992;8.648;2024-02-26T13:09:20;8.73;;;4.45;;
82296;SDS011;71899;51.992;8.648;2024-02-26T13:11:52;10.93;;;5.18;;
82296;SDS011;71899;51.992;8.648;2024-02-26T13:14:19;14.25;;;5.38;;
82296;SDS011;71899;51.992;8.648;2024-02-26T13:16:45;12.70;;;5.32;;
82296;SDS011;71899;51.992;8.648;2024-02-26T13:19:19;11.40;;;5.43;;
82296;SDS011;71899;51.992;8.648;2024-02-26T13:21:44;10.45;;;6.45;;
82296;SDS011;71899;51.992;8.648;2024-02-26T13:24:12;12.32;;;6.05;;
82296;SDS011;71899;51.992;8.648;2024-02-26T13:26:38;5.20;;;3.17;;
82296;SDS011;71899;51.992;8.648;2024-02-26T13:29:03;4.82;;;2.80;;
82296;SDS011;71899;51.992;8.648;2024-02-26T13:31:28;4.95;;;2.67;;
82296;SDS011;71899;51.992;8.648;2024-02-26T13:33:54;3.30;;;2.38;;
82296;SDS011;71899;51.992;8.648;2024-02-26T13:36:21;4.38;;;2.40;;
82296;SDS011;71899;51.992;8.648;2024-02-26T13:38:53;2.95;;;2.15;;
82296;SDS011;71899;51.992;8.648;2024-02-26T13:41:19;3.92;;;2.15;;
82296;SDS011;71899;51.992;8.648;2024-02-26T13:43:46;3.83;;;2.45;;
82296;SDS011;71899;51.992;8.648;2024-02-26T13:46:12;3.30;;;2.10;;
82296;SDS011;71899;51.992;8.648;2024-02-26T13:48:39;3.05;;;1.88;;
82296;SDS011;71899;51.992;8.648;2024-02-26T13:51:04;4.43;;;2.00;;
82296;SDS011;71899;51.992;8.648;2024-02-26T13:53:30;2.47;;;2.25;;
82296;SDS011;71899;51.992;8.648;2024-02-26T13:55:55;3.28;;;2.25;;
82296;SDS011;71899;51.992;8.648;2024-02-26T13:58:22;4.10;;;2.40;;
82296;SDS011;71899;51.992;8.648;2024-02-26T14:00:48;4.68;;;2.40;;
82296;SDS011;71899;51.992;8.648;2024-02-26T14:03:14;4.85;;;2.58;;
82296;SDS011;71899;51.992;8.648;2024-02-26T14:05:39;3.33;;;2.40;;
82296;SDS011;71899;51.992;8.648;2024-02-26T14:08:06;3.95;;;2.40;;
82296;SDS011;71899;51.992;8.648;2024-02-26T14:10:31;3.05;;;2.28;;
82296;SDS011;71899;51.992;8.648;2024-02-26T14:12:57;5.13;;;2.92;;
82296;SDS011;71899;51.992;8.648;2024-02-26T14:15:23;4.40;;;2.92;;
82296;SDS011;71899;51.992;8.648;2024-02-26T14:17:50;5.95;;;3.05;;
82296;SDS011;71899;51.992;8.648;2024-02-26T14:20:21;3.83;;;2.40;;
82296;SDS011;71899;51.992;8.648;2024-02-26T14:22:50;7.65;;;2.60;;
82296;SDS011;71899;51.992;8.648;2024-02-26T14:25:17;4.00;;;2.40;;
82296;SDS011;71899;51.992;8.648;2024-02-26T14:27:42;5.90;;;3.15;;
82296;SDS011;71899;51.992;8.648;2024-02-26T14:30:08;3.63;;;2.72;;
82296;SDS011;71899;51.992;8.648;2024-02-26T14:32:33;3.92;;;2.38;;